createdAt,value
2022-07-25T00:02:24.681Z,55.75
2022-07-25T00:05:00.630Z,52.88
2022-07-25T00:07:35.065Z,57.13
2022-07-25T00:10:12.938Z,55.47
2022-07-25T00:12:47.020Z,54.72
2022-07-25T00:15:20.820Z,50.47
2022-07-25T00:17:54.660Z,52.33
2022-07-25T00:20:31.150Z,51.60
2022-07-25T00:23:05.138Z,52.85
2022-07-25T00:25:39.005Z,49.60
2022-07-25T00:28:25.355Z,53.33
2022-07-25T00:30:59.631Z,52.95
2022-07-25T00:33:37.242Z,57.58
2022-07-25T00:36:16.237Z,54.47
2022-07-25T00:38:49.467Z,52.30
2022-07-25T00:41:23.432Z,53.10
2022-07-25T00:44:00.040Z,52.53
2022-07-25T00:46:33.945Z,52.75
2022-07-25T00:49:07.366Z,54.08
2022-07-25T00:51:42.751Z,50.13
2022-07-25T00:54:16.904Z,50.28
2022-07-25T00:56:50.492Z,52.33
2022-07-25T00:59:24.192Z,50.25
2022-07-25T01:01:58.501Z,49.97
2022-07-25T01:04:36.700Z,50.15
2022-07-25T01:07:12.424Z,48.83
2022-07-25T01:09:46.324Z,48.15
2022-07-25T01:12:20.238Z,49.55
2022-07-25T01:14:54.178Z,50.58
2022-07-25T01:17:27.854Z,52.00
2022-07-25T01:20:01.842Z,50.70
2022-07-25T01:22:37.852Z,49.22
2022-07-25T01:25:12.469Z,44.58
2022-07-25T01:27:51.261Z,46.33
2022-07-25T01:30:30.020Z,44.13
2022-07-25T01:33:06.880Z,44.35
2022-07-25T01:35:43.545Z,43.72
2022-07-25T01:38:19.613Z,42.03
2022-07-25T01:40:54.704Z,46.10
2022-07-25T01:43:27.936Z,43.45
2022-07-25T01:46:02.606Z,41.13
2022-07-25T01:48:36.603Z,44.35
2022-07-25T01:51:11.633Z,39.35
2022-07-25T01:53:47.273Z,40.25
2022-07-25T01:56:21.906Z,42.63
2022-07-25T01:58:55.777Z,39.95
2022-07-25T02:01:29.872Z,39.70
2022-07-25T02:04:03.956Z,40.63
2022-07-25T02:06:42.740Z,35.15
2022-07-25T02:09:17.954Z,39.47
2022-07-25T02:11:51.802Z,40.58
2022-07-25T02:14:27.098Z,35.70
2022-07-25T02:17:01.077Z,34.90
2022-07-25T02:19:35.331Z,34.55
2022-07-25T02:22:08.750Z,33.72
2022-07-25T02:24:45.266Z,35.30
2022-07-25T02:27:19.085Z,32.70
2022-07-25T02:29:52.731Z,33.08
2022-07-25T02:32:26.581Z,29.60
2022-07-25T02:35:00.533Z,28.95
2022-07-25T02:37:34.148Z,29.50
2022-07-25T02:40:09.554Z,30.10
2022-07-25T02:42:43.110Z,29.52
2022-07-25T02:45:16.639Z,29.38
2022-07-25T02:47:50.128Z,31.38
2022-07-25T02:50:23.526Z,27.90
2022-07-25T02:52:57.674Z,25.15
2022-07-25T02:55:33.590Z,24.88
2022-07-25T02:58:07.196Z,22.52
2022-07-25T03:00:41.779Z,24.92
2022-07-25T03:03:18.116Z,24.13
2022-07-25T03:05:52.808Z,23.48
2022-07-25T03:08:26.900Z,23.17
2022-07-25T03:11:02.295Z,21.20
2022-07-25T03:13:36.906Z,27.40
2022-07-25T03:16:11.486Z,26.35
2022-07-25T03:18:47.708Z,21.85
2022-07-25T03:21:21.883Z,19.85
2022-07-25T03:23:54.796Z,20.13
2022-07-25T03:26:30.621Z,21.10
2022-07-25T03:29:04.525Z,20.80
2022-07-25T03:31:38.609Z,20.80
2022-07-25T03:34:12.727Z,19.25
2022-07-25T03:36:47.720Z,18.55
2022-07-25T03:39:21.898Z,18.83
2022-07-25T03:41:57.448Z,19.88
2022-07-25T03:44:46.845Z,20.67
2022-07-25T03:47:21.094Z,21.02
2022-07-25T03:49:54.571Z,23.25
2022-07-25T03:52:28.137Z,21.08
2022-07-25T03:55:01.979Z,23.23
2022-07-25T03:57:38.131Z,22.73
2022-07-25T04:00:14.028Z,19.38
2022-07-25T04:02:47.647Z,21.10
2022-07-25T04:05:24.710Z,19.17
2022-07-25T04:07:58.208Z,19.20
2022-07-25T04:10:32.642Z,18.95
2022-07-25T04:13:08.419Z,19.90
2022-07-25T04:15:42.124Z,19.85
2022-07-25T04:18:20.877Z,21.67
2022-07-25T04:20:58.936Z,21.38
2022-07-25T04:23:33.106Z,22.90
2022-07-25T04:26:06.995Z,27.27
2022-07-25T04:28:42.691Z,25.33
2022-07-25T04:31:17.064Z,26.25
2022-07-25T04:33:50.914Z,24.65
2022-07-25T04:36:24.512Z,25.63
2022-07-25T04:38:58.354Z,26.25
2022-07-25T04:41:34.169Z,25.17
2022-07-25T04:44:10.241Z,26.13
2022-07-25T04:46:44.856Z,24.02
2022-07-25T04:49:23.874Z,23.58
2022-07-25T04:51:58.704Z,22.73
2022-07-25T04:54:32.783Z,22.13
2022-07-25T04:57:07.342Z,23.00
2022-07-25T04:59:43.393Z,23.70
2022-07-25T05:02:17.274Z,24.27
2022-07-25T05:04:51.947Z,25.88
2022-07-25T05:07:27.613Z,27.27
2022-07-25T05:10:01.552Z,25.77
2022-07-25T05:12:35.535Z,25.98
2022-07-25T05:15:12.561Z,26.45
2022-07-25T05:17:47.203Z,26.02
2022-07-25T05:20:23.366Z,27.58
2022-07-25T05:22:58.117Z,29.42
2022-07-25T05:25:32.922Z,31.15
2022-07-25T05:28:06.951Z,27.20
2022-07-25T05:30:42.559Z,28.95
2022-07-25T05:33:20.890Z,28.80
2022-07-25T05:35:56.386Z,30.63
2022-07-25T05:38:30.157Z,28.73
2022-07-25T05:41:03.873Z,28.25
2022-07-25T05:43:37.857Z,27.50
2022-07-25T05:46:15.400Z,28.23
2022-07-25T05:48:49.578Z,25.30
2022-07-25T05:51:27.500Z,27.98
2022-07-25T05:54:05.808Z,26.95
2022-07-25T05:56:39.683Z,26.55
2022-07-25T05:59:13.929Z,26.15
2022-07-25T06:01:50.331Z,28.20
2022-07-25T06:04:27.290Z,29.15
2022-07-25T06:07:03.603Z,28.20
2022-07-25T06:09:39.160Z,28.40
2022-07-25T06:12:13.277Z,30.77
2022-07-25T06:14:48.164Z,30.17
2022-07-25T06:17:25.979Z,28.60
2022-07-25T06:20:03.150Z,28.17
2022-07-25T06:22:37.435Z,29.88
2022-07-25T06:25:14.464Z,30.45
2022-07-25T06:27:49.306Z,27.90
2022-07-25T06:30:23.437Z,26.50
2022-07-25T06:33:00.240Z,27.17
2022-07-25T06:35:34.574Z,25.88
2022-07-25T06:38:09.135Z,26.30
2022-07-25T06:40:43.750Z,25.83
2022-07-25T06:43:18.482Z,27.05
2022-07-25T06:45:53.522Z,24.08
2022-07-25T06:48:38.598Z,24.92
2022-07-25T06:51:12.987Z,24.40
2022-07-25T06:53:48.354Z,24.45
2022-07-25T06:56:22.731Z,25.05
2022-07-25T06:59:06.449Z,26.70
2022-07-25T07:01:45.061Z,25.33
2022-07-25T07:04:28.766Z,25.48
2022-07-25T07:07:04.180Z,24.70
2022-07-25T07:09:38.136Z,27.70
2022-07-25T07:12:12.949Z,23.48
2022-07-25T07:14:56.508Z,25.35
2022-07-25T07:17:30.748Z,25.25
2022-07-25T07:20:07.903Z,23.80
2022-07-25T07:22:53.388Z,24.27
2022-07-25T07:25:28.383Z,22.73
2022-07-25T07:28:03.326Z,23.02
2022-07-25T07:31:13.367Z,23.85
2022-07-25T07:33:34.157Z,23.60
2022-07-25T07:36:11.279Z,23.77
2022-07-25T07:38:46.558Z,24.00
2022-07-25T07:41:28.096Z,24.23
2022-07-25T07:44:02.647Z,24.50
2022-07-25T07:46:46.708Z,22.48
2022-07-25T07:49:49.774Z,21.15
2022-07-25T07:52:38.504Z,21.30
2022-07-25T07:55:25.802Z,21.13
2022-07-25T07:58:00.828Z,19.10
2022-07-25T08:00:40.908Z,20.55
2022-07-25T08:03:14.911Z,20.05
2022-07-25T08:05:50.565Z,20.55
2022-07-25T08:08:31.537Z,20.83
2022-07-25T08:11:06.842Z,20.92
2022-07-25T08:13:41.528Z,20.25
2022-07-25T08:16:16.852Z,20.42
2022-07-25T08:19:03.349Z,19.70
2022-07-25T08:21:38.105Z,19.52
2022-07-25T08:24:21.419Z,19.45
2022-07-25T08:26:56.835Z,19.17
2022-07-25T08:29:31.838Z,19.08
2022-07-25T08:32:06.730Z,20.02
2022-07-25T08:34:44.005Z,18.25
2022-07-25T08:37:42.228Z,18.30
2022-07-25T08:40:19.672Z,18.65
2022-07-25T08:42:56.650Z,17.60
2022-07-25T08:45:39.691Z,16.95
2022-07-25T08:48:14.541Z,17.17
2022-07-25T08:50:49.756Z,18.02
2022-07-25T08:53:33.646Z,18.95
2022-07-25T08:56:20.910Z,17.83
2022-07-25T08:58:55.486Z,16.70
2022-07-25T09:01:32.979Z,16.80
2022-07-25T09:04:11.705Z,15.95
2022-07-25T09:06:55.985Z,17.33
2022-07-25T09:09:37.268Z,16.38
2022-07-25T09:12:13.839Z,16.80
2022-07-25T09:14:50.435Z,16.10
2022-07-25T09:17:25.365Z,16.52
2022-07-25T09:20:02.083Z,16.75
2022-07-25T09:22:37.734Z,16.23
2022-07-25T09:25:23.847Z,15.90
2022-07-25T09:28:00.098Z,16.17
2022-07-25T09:30:33.851Z,16.67
2022-07-25T09:33:07.999Z,16.48
2022-07-25T09:35:43.009Z,15.50
2022-07-25T09:38:19.117Z,15.65
2022-07-25T09:41:04.870Z,15.35
2022-07-25T09:43:45.053Z,15.05
2022-07-25T09:46:18.835Z,15.82
2022-07-25T09:49:02.383Z,16.38
2022-07-25T09:51:37.159Z,15.88
2022-07-25T09:54:14.847Z,16.38
2022-07-25T09:56:48.737Z,16.75
2022-07-25T09:59:30.622Z,15.75
2022-07-25T10:02:12.069Z,17.33
2022-07-25T10:05:00.781Z,19.30
2022-07-25T10:07:35.407Z,17.88
2022-07-25T10:10:33.903Z,17.02
2022-07-25T10:13:13.286Z,16.13
2022-07-25T10:15:53.527Z,17.27
2022-07-25T10:18:29.246Z,17.77
2022-07-25T10:21:28.687Z,17.67
2022-07-25T10:24:07.759Z,18.00
2022-07-25T10:26:42.806Z,18.95
2022-07-25T10:29:17.226Z,17.50
2022-07-25T10:31:54.411Z,17.90
2022-07-25T10:34:34.618Z,18.30
2022-07-25T10:37:20.852Z,18.27
2022-07-25T10:39:54.673Z,19.27
2022-07-25T10:42:29.362Z,19.60
2022-07-25T10:45:10.787Z,19.95
2022-07-25T10:48:04.623Z,19.60
2022-07-25T10:50:54.876Z,20.08
2022-07-25T10:53:53.197Z,20.02
2022-07-25T11:17:27.711Z,17.92
2022-07-25T11:20:20.746Z,18.17
2022-07-25T11:23:06.407Z,17.63
2022-07-25T11:26:00.839Z,15.98
2022-07-25T11:29:05.295Z,17.65
2022-07-25T11:31:43.256Z,16.02
2022-07-25T11:34:57.675Z,15.95
2022-07-25T11:37:37.650Z,15.90
2022-07-25T11:40:13.924Z,15.52
2022-07-25T11:42:50.103Z,15.95
2022-07-25T11:45:25.379Z,15.75
2022-07-25T11:48:09.273Z,15.90
2022-07-25T11:50:47.065Z,14.60
2022-07-25T11:53:22.741Z,15.35
2022-07-25T11:55:56.933Z,15.50
2022-07-25T11:58:30.977Z,15.05
2022-07-25T12:01:04.592Z,15.23
2022-07-25T12:03:43.605Z,15.77
2022-07-25T12:06:19.018Z,15.13
2022-07-25T12:08:53.945Z,15.50
2022-07-25T12:11:28.732Z,15.50
2022-07-25T12:14:09.346Z,15.15
2022-07-25T12:16:43.495Z,15.85
2022-07-25T12:19:25.486Z,15.43
2022-07-25T12:22:02.332Z,15.98
2022-07-25T12:24:38.079Z,18.10
2022-07-25T12:27:12.795Z,18.40
2022-07-25T12:29:46.424Z,20.05
2022-07-25T12:32:20.235Z,19.88
2022-07-25T12:34:54.774Z,20.20
2022-07-25T12:37:33.334Z,20.55
2022-07-25T12:40:08.023Z,22.67
2022-07-25T12:42:42.062Z,20.73
2022-07-25T12:45:17.243Z,20.23
2022-07-25T12:47:52.776Z,20.25
2022-07-25T12:50:29.315Z,20.75
2022-07-25T12:53:06.174Z,21.33
2022-07-25T12:55:40.672Z,20.75
2022-07-25T12:58:17.018Z,20.25
2022-07-25T13:00:50.860Z,21.80
2022-07-25T13:03:25.377Z,21.15
2022-07-25T13:06:00.068Z,22.85
2022-07-25T13:08:39.040Z,21.67
2022-07-25T13:11:14.234Z,22.67
2022-07-25T13:13:48.628Z,22.25
2022-07-25T13:16:23.167Z,23.13
2022-07-25T13:19:01.193Z,24.00
2022-07-25T13:21:35.518Z,23.05
2022-07-25T13:24:12.675Z,22.25
2022-07-25T13:26:47.368Z,23.30
2022-07-25T13:29:22.379Z,24.48
2022-07-25T13:31:59.168Z,24.05
2022-07-25T13:34:34.775Z,26.42
2022-07-25T13:37:08.458Z,27.33
2022-07-25T13:39:44.487Z,27.85
2022-07-25T13:42:19.786Z,30.27
2022-07-25T13:44:55.896Z,30.50
2022-07-25T13:47:30.646Z,34.17
2022-07-25T13:50:05.000Z,31.63
2022-07-25T13:52:39.077Z,36.13
2022-07-25T13:55:15.788Z,32.33
2022-07-25T13:57:52.923Z,32.17
2022-07-25T14:00:26.598Z,32.55
2022-07-25T14:03:01.356Z,33.22
2022-07-25T14:05:35.336Z,31.50
2022-07-25T14:08:10.436Z,31.23
2022-07-25T14:10:49.782Z,30.63
2022-07-25T14:13:24.580Z,32.28
2022-07-25T14:15:59.436Z,32.67
2022-07-25T14:18:34.044Z,31.63
2022-07-25T14:21:10.838Z,33.97
2022-07-25T14:23:46.838Z,35.30
2022-07-25T14:26:23.922Z,33.53
2022-07-25T14:28:59.007Z,35.92
2022-07-25T14:34:24.276Z,35.53
2022-07-25T14:37:00.542Z,35.53
2022-07-25T14:39:35.193Z,36.38
2022-07-25T14:42:12.937Z,36.72
2022-07-25T14:44:47.737Z,36.35
2022-07-25T14:47:21.830Z,36.42
2022-07-25T14:49:58.584Z,35.55
2022-07-25T14:52:32.933Z,35.20
2022-07-25T14:55:14.278Z,35.22
2022-07-25T14:57:53.199Z,36.60
2022-07-25T15:00:29.577Z,38.08
2022-07-25T15:03:04.332Z,35.55
2022-07-25T15:05:39.855Z,37.33
2022-07-25T15:08:15.977Z,34.80
2022-07-25T15:10:54.551Z,35.90
2022-07-25T15:13:32.358Z,36.03
2022-07-25T15:16:09.129Z,35.22
2022-07-25T15:19:13.275Z,34.90
2022-07-25T15:21:41.252Z,32.95
2022-07-25T15:24:17.813Z,32.88
2022-07-25T15:26:53.174Z,33.95
2022-07-25T15:29:30.479Z,33.95
2022-07-25T15:32:10.691Z,34.42
2022-07-25T15:34:46.479Z,34.40
2022-07-25T15:37:20.659Z,35.25
2022-07-25T15:39:56.393Z,35.38
2022-07-25T15:42:32.145Z,36.88
2022-07-25T15:45:32.038Z,38.65
2022-07-25T15:48:05.703Z,45.80
2022-07-25T15:50:48.887Z,41.42
2022-07-25T15:53:23.963Z,45.45
2022-07-25T15:55:58.855Z,43.85
2022-07-25T15:58:33.902Z,47.80
2022-07-25T16:01:11.682Z,49.08
2022-07-25T16:03:45.932Z,49.83
2022-07-25T16:06:22.149Z,52.97
2022-07-25T16:08:58.610Z,51.78
2022-07-25T16:11:33.703Z,52.42
2022-07-25T16:14:08.471Z,52.85
2022-07-25T16:16:45.882Z,53.38
2022-07-25T16:19:20.421Z,48.42
2022-07-25T16:21:55.341Z,46.60
2022-07-25T16:24:31.069Z,48.92
2022-07-25T16:27:06.921Z,45.70
2022-07-25T16:29:41.974Z,46.92
2022-07-25T16:32:18.727Z,44.90
2022-07-25T16:34:53.911Z,47.30
2022-07-25T16:37:28.061Z,46.33
2022-07-25T16:40:06.527Z,47.28
2022-07-25T16:42:41.751Z,47.75
2022-07-25T16:45:17.272Z,47.53
2022-07-25T16:47:54.202Z,44.15
2022-07-25T16:50:29.074Z,47.25
2022-07-25T16:53:03.257Z,48.88
2022-07-25T16:55:38.514Z,48.25
2022-07-25T16:58:12.758Z,51.00
2022-07-25T17:00:48.700Z,50.42
2022-07-25T17:03:25.538Z,49.85
2022-07-25T17:05:59.204Z,49.20
2022-07-25T17:08:34.537Z,50.35
2022-07-25T17:11:09.080Z,49.67
2022-07-25T17:13:43.557Z,48.30
2022-07-25T17:16:17.747Z,50.40
2022-07-25T17:18:55.375Z,48.55
2022-07-25T17:21:30.137Z,49.35
2022-07-25T17:24:04.438Z,48.53
2022-07-25T17:26:39.536Z,51.10
2022-07-25T17:29:14.035Z,48.80
2022-07-25T17:31:49.063Z,48.40
2022-07-25T17:37:14.419Z,48.80
2022-07-25T17:39:48.442Z,48.17
2022-07-25T17:42:23.931Z,47.92
2022-07-25T17:44:58.697Z,50.00
2022-07-25T17:47:33.831Z,50.63
2022-07-25T17:50:10.428Z,53.33
2022-07-25T17:52:43.926Z,49.90
2022-07-25T17:55:17.905Z,47.47
2022-07-25T17:57:55.932Z,47.10
2022-07-25T18:00:30.768Z,49.10
2022-07-25T18:03:04.977Z,46.95
2022-07-25T18:05:41.098Z,46.20
2022-07-25T18:08:15.605Z,47.38
2022-07-25T18:10:50.758Z,48.47
2022-07-25T18:13:26.200Z,50.33
2022-07-25T18:16:01.498Z,51.80
2022-07-25T18:18:35.440Z,47.05
2022-07-25T18:21:11.437Z,49.45
2022-07-25T18:23:45.778Z,48.88
2022-07-25T18:26:19.456Z,48.17
2022-07-25T18:28:52.588Z,52.63
2022-07-25T18:31:25.771Z,56.10
2022-07-25T18:33:59.625Z,58.92
2022-07-25T18:36:35.489Z,52.22
2022-07-25T18:39:10.024Z,55.75
2022-07-25T18:41:43.848Z,53.80
2022-07-25T18:44:17.108Z,56.85
2022-07-25T18:46:51.117Z,56.47
2022-07-25T18:49:24.932Z,61.67
2022-07-25T18:52:00.282Z,58.40
2022-07-25T18:54:34.073Z,60.30
2022-07-25T18:57:08.295Z,58.25
2022-07-25T18:59:42.991Z,57.05
2022-07-25T19:02:17.094Z,55.78
2022-07-25T19:04:51.922Z,55.92
2022-07-25T19:07:28.465Z,57.22
2022-07-25T19:10:02.170Z,57.20
2022-07-25T19:12:35.542Z,62.80
2022-07-25T19:15:09.477Z,63.80
2022-07-25T19:17:43.345Z,63.53
2022-07-25T19:20:22.922Z,59.57
2022-07-25T19:22:58.991Z,58.95
2022-07-25T19:25:33.046Z,58.30
2022-07-25T19:28:08.099Z,58.42
2022-07-25T19:33:34.686Z,55.92
2022-07-25T19:36:10.566Z,53.92
2022-07-25T19:38:46.282Z,53.70
2022-07-25T19:41:20.456Z,55.38
2022-07-25T19:43:55.190Z,54.45
2022-07-25T19:46:32.256Z,53.85
2022-07-25T19:49:07.135Z,55.20
2022-07-25T19:51:43.925Z,62.47
2022-07-25T19:54:27.335Z,55.53
2022-07-25T19:57:01.308Z,51.65
2022-07-25T19:59:35.429Z,50.67
2022-07-25T20:02:09.013Z,50.80
2022-07-25T20:04:48.410Z,50.72
2022-07-25T20:07:27.719Z,51.67
2022-07-25T20:10:03.456Z,47.42
2022-07-25T20:12:38.830Z,47.00
2022-07-25T20:15:13.235Z,50.42
2022-07-25T20:17:46.994Z,55.80
2022-07-25T20:20:21.124Z,52.47
2022-07-25T20:23:00.862Z,51.97
2022-07-25T20:25:37.080Z,52.55
2022-07-25T20:28:10.911Z,53.85
2022-07-25T20:30:47.634Z,53.17
2022-07-25T20:33:25.043Z,52.25
2022-07-25T20:35:58.841Z,53.03
2022-07-25T20:38:33.582Z,53.17
2022-07-25T20:41:09.197Z,52.20
2022-07-25T20:43:44.467Z,53.08
2022-07-25T20:46:18.280Z,54.80
2022-07-25T20:48:52.259Z,56.57
2022-07-25T20:51:25.935Z,52.97
2022-07-25T20:53:59.476Z,53.28
2022-07-25T20:56:34.510Z,51.30
2022-07-25T20:59:08.825Z,56.45
2022-07-25T21:01:44.050Z,55.22
2022-07-25T21:04:18.161Z,56.40
2022-07-25T21:06:51.885Z,55.28
2022-07-25T21:09:32.582Z,57.47
2022-07-25T21:12:08.777Z,58.40
2022-07-25T21:14:42.847Z,52.43
2022-07-25T21:17:16.822Z,56.47
2022-07-25T21:19:50.587Z,51.30
2022-07-25T21:22:24.137Z,49.87
2022-07-25T21:24:57.473Z,52.20
2022-07-25T21:27:32.275Z,51.27
2022-07-25T21:30:06.442Z,56.83
2022-07-25T21:32:40.462Z,60.72
2022-07-25T21:35:14.453Z,56.40
2022-07-25T21:37:51.470Z,53.87
2022-07-25T21:40:27.927Z,52.30
2022-07-25T21:43:03.779Z,52.80
2022-07-25T21:45:36.959Z,51.53
2022-07-25T21:48:11.163Z,52.90
2022-07-25T21:50:58.570Z,50.77
2022-07-25T21:53:34.161Z,69.13
2022-07-25T21:56:08.519Z,59.57
2022-07-25T21:58:44.645Z,55.80
2022-07-25T22:01:18.227Z,54.53
2022-07-25T22:03:52.315Z,52.47
2022-07-25T22:06:26.666Z,53.87
2022-07-25T22:11:50.252Z,48.30
2022-07-25T22:14:26.661Z,48.87
2022-07-25T22:17:00.343Z,49.60
2022-07-25T22:19:34.563Z,49.23
2022-07-25T22:22:09.412Z,46.97
2022-07-25T22:24:46.628Z,47.73
2022-07-25T22:27:21.163Z,47.77
2022-07-25T22:29:57.168Z,46.23
2022-07-25T22:32:30.805Z,48.47
2022-07-25T22:35:04.985Z,46.53
2022-07-25T22:37:40.703Z,46.10
2022-07-25T22:40:16.119Z,47.67
2022-07-25T22:42:52.533Z,47.03
2022-07-25T22:45:27.445Z,45.25
2022-07-25T22:48:01.326Z,44.75
2022-07-25T22:50:34.722Z,45.88
2022-07-25T22:53:08.219Z,47.55
2022-07-25T22:55:41.355Z,50.88
2022-07-25T22:58:16.612Z,51.35
2022-07-25T23:00:52.426Z,52.75
2022-07-25T23:03:27.797Z,52.17
2022-07-25T23:06:07.204Z,47.45
2022-07-25T23:08:41.395Z,45.53
2022-07-25T23:11:15.540Z,43.25
2022-07-25T23:13:52.654Z,45.28
2022-07-25T23:16:28.725Z,45.97
2022-07-25T23:19:02.297Z,46.78
2022-07-25T23:21:35.981Z,48.92
2022-07-25T23:24:12.179Z,49.25
2022-07-25T23:26:47.061Z,48.50
2022-07-25T23:29:20.441Z,50.13
2022-07-25T23:31:56.651Z,46.17
2022-07-25T23:34:30.778Z,46.03
2022-07-25T23:37:04.655Z,46.13
2022-07-25T23:39:37.778Z,42.22
2022-07-25T23:42:11.541Z,48.53
2022-07-25T23:44:45.496Z,48.60
2022-07-25T23:47:26.775Z,55.15
2022-07-25T23:50:14.782Z,56.65
2022-07-25T23:52:48.870Z,68.47
2022-07-25T23:55:24.225Z,64.63
2022-07-25T23:57:58.066Z,49.75
